Hadley, United Kingdom
Current Conditions -  °F | °C
As of 2:50 PM on Wednesday 26 Nov 2014 (Local Time) from EGOS Reporting Station
Drizzle Drizzle  
Wind Chill:   Ceiling: 600
Heat Index:   Visibility: 1.8mi
Dew Point:   Wind: 3mph
Humidity: 100%   Direction: 350°N
Pressure: 29.83"   Gusts: NA
Location:  52.7°N, 2.48°W
Report Text: EGOS 261450Z 35003KT 3000 -DZ OVC006 07/07 Q1010 YLO1 TEMPO 2200 YLO2
Loading
Personal Weather Stations






























Interactive Weather Map New forecast layout! Learn more

10-Day Weather Forecast

Advertisements
Track Severe Weather on mobile